sensor_id;sensor_type;location;lat;lon;timestamp;P1;durP1;ratioP1;P2;durP2;ratioP2
67164;SDS011;54093;50.014;19.984;2023-06-04T00:01:36;5.18;;;2.20;;
67164;SDS011;54093;50.014;19.984;2023-06-04T00:10:57;1.98;;;1.88;;
67164;SDS011;54093;50.014;19.984;2023-06-04T00:20:18;5.30;;;2.65;;
67164;SDS011;54093;50.014;19.984;2023-06-04T00:29:39;2.83;;;2.38;;
67164;SDS011;54093;50.014;19.984;2023-06-04T00:39:00;2.95;;;2.75;;
67164;SDS011;54093;50.014;19.984;2023-06-04T00:48:21;4.43;;;3.05;;
67164;SDS011;54093;50.014;19.984;2023-06-04T00:57:42;4.10;;;3.70;;
67164;SDS011;54093;50.014;19.984;2023-06-04T01:07:04;3.40;;;3.10;;
67164;SDS011;54093;50.014;19.984;2023-06-04T01:16:25;4.07;;;2.90;;
67164;SDS011;54093;50.014;19.984;2023-06-04T01:25:49;6.90;;;3.60;;
67164;SDS011;54093;50.014;19.984;2023-06-04T01:35:12;6.28;;;3.80;;
67164;SDS011;54093;50.014;19.984;2023-06-04T01:44:33;5.30;;;3.45;;
67164;SDS011;54093;50.014;19.984;2023-06-04T01:53:54;4.38;;;3.83;;
67164;SDS011;54093;50.014;19.984;2023-06-04T02:03:15;2.88;;;2.22;;
67164;SDS011;54093;50.014;19.984;2023-06-04T02:12:37;4.63;;;2.88;;
67164;SDS011;54093;50.014;19.984;2023-06-04T02:21:59;4.50;;;3.28;;
67164;SDS011;54093;50.014;19.984;2023-06-04T02:31:20;4.00;;;3.53;;
67164;SDS011;54093;50.014;19.984;2023-06-04T02:40:42;3.25;;;2.90;;
67164;SDS011;54093;50.014;19.984;2023-06-04T02:50:03;2.55;;;2.35;;
67164;SDS011;54093;50.014;19.984;2023-06-04T02:59:25;4.65;;;2.67;;
67164;SDS011;54093;50.014;19.984;2023-06-04T03:08:46;6.18;;;2.05;;
67164;SDS011;54093;50.014;19.984;2023-06-04T03:18:08;7.28;;;2.38;;
67164;SDS011;54093;50.014;19.984;2023-06-04T03:27:30;2.05;;;1.92;;
67164;SDS011;54093;50.014;19.984;2023-06-04T03:36:53;6.25;;;2.55;;
67164;SDS011;54093;50.014;19.984;2023-06-04T03:46:15;4.72;;;2.45;;
67164;SDS011;54093;50.014;19.984;2023-06-04T03:55:35;2.10;;;2.00;;
67164;SDS011;54093;50.014;19.984;2023-06-04T04:04:57;2.20;;;2.10;;
67164;SDS011;54093;50.014;19.984;2023-06-04T04:14:18;4.25;;;2.10;;
67164;SDS011;54093;50.014;19.984;2023-06-04T04:23:39;10.70;;;2.92;;
67164;SDS011;54093;50.014;19.984;2023-06-04T04:33:03;2.30;;;2.10;;
67164;SDS011;54093;50.014;19.984;2023-06-04T04:42:26;1.88;;;1.77;;
67164;SDS011;54093;50.014;19.984;2023-06-04T04:51:47;1.90;;;1.80;;
67164;SDS011;54093;50.014;19.984;2023-06-04T05:01:09;2.15;;;2.05;;
67164;SDS011;54093;50.014;19.984;2023-06-04T05:10:30;2.20;;;2.00;;
67164;SDS011;54093;50.014;19.984;2023-06-04T05:19:51;5.32;;;1.70;;
67164;SDS011;54093;50.014;19.984;2023-06-04T05:29:13;2.25;;;1.90;;
67164;SDS011;54093;50.014;19.984;2023-06-04T05:38:34;3.10;;;2.10;;
67164;SDS011;54093;50.014;19.984;2023-06-04T05:47:56;2.40;;;2.30;;
67164;SDS011;54093;50.014;19.984;2023-06-04T05:57:17;2.15;;;2.05;;
67164;SDS011;54093;50.014;19.984;2023-06-04T06:06:38;3.80;;;2.30;;
67164;SDS011;54093;50.014;19.984;2023-06-04T06:15:59;4.38;;;2.13;;
67164;SDS011;54093;50.014;19.984;2023-06-04T06:25:20;1.77;;;1.67;;
67164;SDS011;54093;50.014;19.984;2023-06-04T06:34:41;2.20;;;2.08;;
67164;SDS011;54093;50.014;19.984;2023-06-04T06:44:02;1.80;;;1.70;;
67164;SDS011;54093;50.014;19.984;2023-06-04T06:53:23;2.15;;;2.00;;
67164;SDS011;54093;50.014;19.984;2023-06-04T07:02:44;2.63;;;2.10;;
67164;SDS011;54093;50.014;19.984;2023-06-04T07:12:05;1.73;;;1.63;;
67164;SDS011;54093;50.014;19.984;2023-06-04T07:21:27;3.53;;;2.00;;
67164;SDS011;54093;50.014;19.984;2023-06-04T07:30:48;2.13;;;1.67;;
67164;SDS011;54093;50.014;19.984;2023-06-04T07:40:09;2.60;;;1.80;;
67164;SDS011;54093;50.014;19.984;2023-06-04T07:49:30;1.90;;;1.80;;
67164;SDS011;54093;50.014;19.984;2023-06-04T07:58:51;1.55;;;1.45;;
67164;SDS011;54093;50.014;19.984;2023-06-04T08:08:12;2.95;;;1.60;;
67164;SDS011;54093;50.014;19.984;2023-06-04T08:17:39;1.42;;;1.40;;
67164;SDS011;54093;50.014;19.984;2023-06-04T08:27:01;4.00;;;1.90;;
67164;SDS011;54093;50.014;19.984;2023-06-04T08:36:26;1.30;;;1.25;;
67164;SDS011;54093;50.014;19.984;2023-06-04T08:45:49;1.30;;;1.20;;
67164;SDS011;54093;50.014;19.984;2023-06-04T08:55:22;2.83;;;1.30;;
67164;SDS011;54093;50.014;19.984;2023-06-04T09:04:48;1.45;;;1.35;;
67164;SDS011;54093;50.014;19.984;2023-06-04T09:14:14;1.90;;;1.42;;
67164;SDS011;54093;50.014;19.984;2023-06-04T09:23:44;1.73;;;1.63;;
67164;SDS011;54093;50.014;19.984;2023-06-04T09:33:09;2.05;;;1.33;;
67164;SDS011;54093;50.014;19.984;2023-06-04T09:42:30;1.40;;;1.30;;
67164;SDS011;54093;50.014;19.984;2023-06-04T09:52:01;1.33;;;1.05;;
67164;SDS011;54093;50.014;19.984;2023-06-04T10:01:23;6.38;;;1.50;;
67164;SDS011;54093;50.014;19.984;2023-06-04T10:10:47;1.77;;;1.67;;
67164;SDS011;54093;50.014;19.984;2023-06-04T10:20:15;1.70;;;1.50;;
67164;SDS011;54093;50.014;19.984;2023-06-04T10:29:37;1.15;;;1.15;;
67164;SDS011;54093;50.014;19.984;2023-06-04T10:38:58;1.33;;;1.30;;
67164;SDS011;54093;50.014;19.984;2023-06-04T10:48:20;1.50;;;1.40;;
67164;SDS011;54093;50.014;19.984;2023-06-04T10:57:50;6.18;;;1.60;;
67164;SDS011;54093;50.014;19.984;2023-06-04T11:07:19;3.70;;;1.38;;
67164;SDS011;54093;50.014;19.984;2023-06-04T11:16:42;1.55;;;1.45;;
67164;SDS011;54093;50.014;19.984;2023-06-04T11:26:03;3.35;;;1.40;;
67164;SDS011;54093;50.014;19.984;2023-06-04T11:35:24;3.63;;;1.70;;
67164;SDS011;54093;50.014;19.984;2023-06-04T11:44:45;5.50;;;1.60;;
67164;SDS011;54093;50.014;19.984;2023-06-04T11:54:09;3.30;;;1.50;;
67164;SDS011;54093;50.014;19.984;2023-06-04T12:03:33;3.40;;;1.40;;
67164;SDS011;54093;50.014;19.984;2023-06-04T12:12:57;2.95;;;1.63;;
67164;SDS011;54093;50.014;19.984;2023-06-04T12:22:20;1.97;;;1.40;;
67164;SDS011;54093;50.014;19.984;2023-06-04T12:31:45;5.85;;;1.90;;
67164;SDS011;54093;50.014;19.984;2023-06-04T12:41:07;6.32;;;1.60;;
67164;SDS011;54093;50.014;19.984;2023-06-04T12:50:28;2.05;;;1.40;;
67164;SDS011;54093;50.014;19.984;2023-06-04T12:59:49;1.33;;;1.30;;
67164;SDS011;54093;50.014;19.984;2023-06-04T13:09:10;1.63;;;1.50;;
67164;SDS011;54093;50.014;19.984;2023-06-04T13:18:31;1.55;;;1.45;;
67164;SDS011;54093;50.014;19.984;2023-06-04T13:27:52;2.10;;;1.90;;
67164;SDS011;54093;50.014;19.984;2023-06-04T13:37:13;4.15;;;1.40;;
67164;SDS011;54093;50.014;19.984;2023-06-04T13:46:34;1.30;;;1.30;;
67164;SDS011;54093;50.014;19.984;2023-06-04T13:55:55;1.30;;;1.30;;
67164;SDS011;54093;50.014;19.984;2023-06-04T14:05:18;2.05;;;1.70;;
67164;SDS011;54093;50.014;19.984;2023-06-04T14:14:39;2.03;;;1.92;;
67164;SDS011;54093;50.014;19.984;2023-06-04T14:24:00;1.60;;;1.50;;
67164;SDS011;54093;50.014;19.984;2023-06-04T14:33:21;1.77;;;1.63;;
67164;SDS011;54093;50.014;19.984;2023-06-04T14:42:42;2.17;;;1.50;;
67164;SDS011;54093;50.014;19.984;2023-06-04T14:52:03;1.60;;;1.50;;
67164;SDS011;54093;50.014;19.984;2023-06-04T15:01:24;3.05;;;1.85;;
67164;SDS011;54093;50.014;19.984;2023-06-04T15:10:45;1.90;;;1.80;;
67164;SDS011;54093;50.014;19.984;2023-06-04T15:20:07;4.53;;;1.83;;
67164;SDS011;54093;50.014;19.984;2023-06-04T15:29:28;1.48;;;1.40;;
67164;SDS011;54093;50.014;19.984;2023-06-04T15:39:15;2.65;;;1.70;;
67164;SDS011;54093;50.014;19.984;2023-06-04T15:48:36;1.63;;;1.52;;
67164;SDS011;54093;50.014;19.984;2023-06-04T15:57:57;6.25;;;1.50;;
67164;SDS011;54093;50.014;19.984;2023-06-04T16:07:18;1.85;;;1.75;;
67164;SDS011;54093;50.014;19.984;2023-06-04T16:16:39;1.50;;;1.40;;
67164;SDS011;54093;50.014;19.984;2023-06-04T16:26:00;3.53;;;1.77;;
67164;SDS011;54093;50.014;19.984;2023-06-04T16:35:22;1.70;;;1.60;;
67164;SDS011;54093;50.014;19.984;2023-06-04T16:44:43;2.13;;;1.50;;
67164;SDS011;54093;50.014;19.984;2023-06-04T16:54:04;1.58;;;1.48;;
67164;SDS011;54093;50.014;19.984;2023-06-04T17:03:25;2.38;;;1.25;;
67164;SDS011;54093;50.014;19.984;2023-06-04T17:12:47;2.13;;;1.92;;
67164;SDS011;54093;50.014;19.984;2023-06-04T17:22:09;1.65;;;1.55;;
67164;SDS011;54093;50.014;19.984;2023-06-04T17:31:30;2.90;;;1.90;;
67164;SDS011;54093;50.014;19.984;2023-06-04T17:40:52;1.65;;;1.55;;
67164;SDS011;54093;50.014;19.984;2023-06-04T17:50:13;1.77;;;1.67;;
67164;SDS011;54093;50.014;19.984;2023-06-04T17:59:34;2.38;;;1.60;;
67164;SDS011;54093;50.014;19.984;2023-06-04T18:08:56;2.42;;;2.17;;
67164;SDS011;54093;50.014;19.984;2023-06-04T18:18:18;1.77;;;1.67;;
67164;SDS011;54093;50.014;19.984;2023-06-04T18:27:39;2.88;;;1.80;;
67164;SDS011;54093;50.014;19.984;2023-06-04T18:37:00;5.45;;;1.70;;
67164;SDS011;54093;50.014;19.984;2023-06-04T18:46:22;1.77;;;1.42;;
67164;SDS011;54093;50.014;19.984;2023-06-04T18:55:44;2.90;;;1.48;;
67164;SDS011;54093;50.014;19.984;2023-06-04T19:05:07;2.33;;;1.50;;
67164;SDS011;54093;50.014;19.984;2023-06-04T19:14:29;1.33;;;1.30;;
67164;SDS011;54093;50.014;19.984;2023-06-04T19:23:50;1.60;;;1.50;;
67164;SDS011;54093;50.014;19.984;2023-06-04T19:33:12;4.38;;;1.42;;
67164;SDS011;54093;50.014;19.984;2023-06-04T19:42:33;3.15;;;1.60;;
67164;SDS011;54093;50.014;19.984;2023-06-04T19:51:54;3.17;;;1.30;;
67164;SDS011;54093;50.014;19.984;2023-06-04T20:01:16;1.55;;;1.45;;
67164;SDS011;54093;50.014;19.984;2023-06-04T20:10:39;1.92;;;1.73;;
67164;SDS011;54093;50.014;19.984;2023-06-04T20:20:00;2.00;;;1.90;;
67164;SDS011;54093;50.014;19.984;2023-06-04T20:29:21;2.35;;;2.15;;
67164;SDS011;54093;50.014;19.984;2023-06-04T20:38:43;3.17;;;2.13;;
67164;SDS011;54093;50.014;19.984;2023-06-04T20:48:05;3.08;;;1.70;;
67164;SDS011;54093;50.014;19.984;2023-06-04T20:57:27;1.70;;;1.60;;
67164;SDS011;54093;50.014;19.984;2023-06-04T21:06:48;2.40;;;1.65;;
67164;SDS011;54093;50.014;19.984;2023-06-04T21:16:09;6.57;;;2.05;;
67164;SDS011;54093;50.014;19.984;2023-06-04T21:25:30;1.50;;;1.50;;
67164;SDS011;54093;50.014;19.984;2023-06-04T21:34:51;1.90;;;1.80;;
67164;SDS011;54093;50.014;19.984;2023-06-04T21:44:12;1.75;;;1.60;;
67164;SDS011;54093;50.014;19.984;2023-06-04T21:53:33;2.58;;;1.70;;
67164;SDS011;54093;50.014;19.984;2023-06-04T22:02:54;1.40;;;1.38;;
67164;SDS011;54093;50.014;19.984;2023-06-04T22:12:15;1.60;;;1.50;;
67164;SDS011;54093;50.014;19.984;2023-06-04T22:21:36;3.08;;;2.03;;
67164;SDS011;54093;50.014;19.984;2023-06-04T22:30:57;1.75;;;1.65;;
67164;SDS011;54093;50.014;19.984;2023-06-04T22:40:18;2.28;;;1.90;;
67164;SDS011;54093;50.014;19.984;2023-06-04T22:49:39;1.73;;;1.63;;
67164;SDS011;54093;50.014;19.984;2023-06-04T22:59:02;4.30;;;1.90;;
67164;SDS011;54093;50.014;19.984;2023-06-04T23:08:23;2.13;;;1.92;;
67164;SDS011;54093;50.014;19.984;2023-06-04T23:17:45;3.17;;;2.20;;
67164;SDS011;54093;50.014;19.984;2023-06-04T23:27:06;1.80;;;1.70;;
67164;SDS011;54093;50.014;19.984;2023-06-04T23:36:27;1.92;;;1.73;;
67164;SDS011;54093;50.014;19.984;2023-06-04T23:45:48;3.05;;;2.00;;
67164;SDS011;54093;50.014;19.984;2023-06-04T23:55:09;2.40;;;2.17;;
